Time;durP1;ratioP1;P1;durP2;ratioP2;P2;SDS_P1;SDS_P2;PMS_P1;PMS_P2;Temp;Humidity;BMP_temperature;BMP_pressure;BME280_temperature;BME280_humidity;BME280_pressure;Samples;Min_cycle;Max_cycle;Signal;HPM_P1;HPM_P2
2022/04/07 00:01:02;;;;;;;2.78;1.88;;;12.20;57.60;;;;;;5098946;28;20202;-64
2022/04/07 00:03:31;;;;;;;3.95;1.48;;;12.20;57.50;;;;;;5113057;27;20185;-64
2022/04/07 00:05:58;;;;;;;4.00;1.30;;;12.20;57.50;;;;;;5107721;28;20598;-63
2022/04/07 00:08:26;;;;;;;3.30;1.30;;;12.20;57.50;;;;;;5092598;28;20239;-63
2022/04/07 00:10:55;;;;;;;3.75;1.60;;;12.20;57.90;;;;;;5096243;28;20187;-63
2022/04/07 00:13:25;;;;;;;2.08;1.17;;;12.10;57.90;;;;;;5112978;28;20196;-63
2022/04/07 00:15:53;;;;;;;2.28;1.40;;;12.10;58.20;;;;;;5109239;28;20272;-63
2022/04/07 00:18:20;;;;;;;1.90;1.05;;;12.10;58.10;;;;;;5092445;28;20616;-64
2022/04/07 00:20:50;;;;;;;2.35;1.23;;;12.10;58.00;;;;;;5094026;28;20189;-64
2022/04/07 00:23:18;;;;;;;2.25;1.13;;;12.10;58.20;;;;;;5112926;28;20278;-63
2022/04/07 00:25:45;;;;;;;2.85;1.05;;;12.10;58.40;;;;;;5110806;28;20208;-64
2022/04/07 00:28:12;;;;;;;2.53;1.60;;;12.10;58.40;;;;;;5092354;28;20259;-64
2022/04/07 00:30:40;;;;;;;2.53;1.13;;;12.10;58.40;;;;;;5091778;28;20192;-63
2022/04/07 00:33:08;;;;;;;2.72;1.02;;;12.10;58.40;;;;;;5110676;28;20190;-63
2022/04/07 00:35:36;;;;;;;3.00;1.10;;;12.10;58.30;;;;;;5112726;28;20188;-63
2022/04/07 00:38:05;;;;;;;2.30;1.30;;;12.10;58.30;;;;;;5092462;28;20575;-64
2022/04/07 00:40:32;;;;;;;2.40;1.50;;;12.10;58.30;;;;;;5092414;28;20200;-63
2022/04/07 00:43:05;;;;;;;2.13;1.10;;;12.20;58.30;;;;;;5110278;28;20192;-65
2022/04/07 00:45:32;;;;;;;2.95;1.35;;;12.20;58.60;;;;;;5112535;28;20643;-63
2022/04/07 00:48:01;;;;;;;4.55;1.23;;;12.10;58.30;;;;;;5094292;28;20287;-63
2022/04/07 00:50:28;;;;;;;2.00;1.10;;;12.10;58.00;;;;;;5093263;28;20574;-63
2022/04/07 00:52:58;;;;;;;2.13;0.90;;;12.20;57.80;;;;;;5092027;28;20189;-64
2022/04/07 00:55:28;;;;;;;5.75;1.42;;;12.10;57.70;;;;;;5094525;28;20188;-63
2022/04/07 00:57:56;;;;;;;1.90;0.95;;;12.10;57.60;;;;;;5112563;28;20673;-63
2022/04/07 01:00:23;;;;;;;1.85;0.88;;;12.00;58.20;;;;;;5110305;28;20219;-64
2022/04/07 01:02:50;;;;;;;1.80;0.93;;;12.00;58.30;;;;;;5092115;28;20192;-63
2022/04/07 01:05:20;;;;;;;2.53;1.30;;;11.90;58.90;;;;;;5091835;28;20386;-64
2022/04/07 01:07:47;;;;;;;1.83;1.13;;;11.90;58.80;;;;;;5112255;28;20219;-63
2022/04/07 01:10:15;;;;;;;2.17;1.38;;;11.80;59.70;;;;;;5110405;28;20642;-67
2022/04/07 01:12:45;;;;;;;2.13;1.30;;;11.70;60.60;;;;;;5112363;28;20188;-63
2022/04/07 01:15:13;;;;;;;2.65;1.10;;;11.70;60.90;;;;;;5105542;28;20193;-63
2022/04/07 01:17:40;;;;;;;5.25;1.70;;;11.60;61.50;;;;;;5091655;28;20740;-63
2022/04/07 01:20:09;;;;;;;1.90;1.10;;;11.40;62.30;;;;;;5096603;28;20237;-63
2022/04/07 01:22:39;;;;;;;2.28;1.38;;;11.30;63.00;;;;;;5112151;28;20196;-64
2022/04/07 01:25:09;;;;;;;3.20;1.65;;;11.30;63.60;;;;;;5106787;28;20244;-63
2022/04/07 01:27:37;;;;;;;3.22;2.20;;;11.20;63.60;;;;;;5095457;28;20296;-63
2022/04/07 01:30:07;;;;;;;2.40;1.25;;;11.10;65.20;;;;;;5114249;28;20185;-63
2022/04/07 01:32:40;;;;;;;2.42;1.50;;;11.10;65.30;;;;;;5112854;28;20201;-63
2022/04/07 01:35:11;;;;;;;2.17;1.38;;;11.10;64.90;;;;;;5095912;28;20597;-66
2022/04/07 01:37:39;;;;;;;2.00;1.25;;;11.00;65.20;;;;;;5098675;28;20180;-63
2022/04/07 01:40:10;;;;;;;2.35;1.30;;;10.90;66.20;;;;;;5116049;28;20189;-64
2022/04/07 01:42:38;;;;;;;1.90;1.20;;;10.80;67.30;;;;;;5112815;28;20188;-64
2022/04/07 01:45:08;;;;;;;2.00;1.08;;;10.70;67.50;;;;;;5095262;28;20609;-64
2022/04/07 01:47:38;;;;;;;2.50;1.40;;;10.70;67.40;;;;;;5096673;28;20266;-63
2022/04/07 01:50:07;;;;;;;2.40;1.30;;;10.80;67.70;;;;;;5108457;28;20185;-63
2022/04/07 01:52:36;;;;;;;2.55;1.30;;;10.70;67.20;;;;;;5096138;28;20181;-64
2022/04/07 01:55:04;;;;;;;2.58;1.17;;;10.80;67.50;;;;;;5095195;28;20254;-65
2022/04/07 01:57:33;;;;;;;2.90;1.45;;;10.80;67.40;;;;;;5110353;28;20196;-63
2022/04/07 02:00:02;;;;;;;2.95;1.40;;;10.80;67.70;;;;;;5115659;28;20200;-64
2022/04/07 02:02:29;;;;;;;2.35;1.52;;;10.70;67.50;;;;;;5101196;28;21073;-63
2022/04/07 02:04:58;;;;;;;3.13;1.30;;;10.80;67.60;;;;;;5097050;28;20224;-63
2022/04/07 02:07:30;;;;;;;3.67;2.15;;;10.80;67.40;;;;;;5115362;28;20224;-63
2022/04/07 02:09:57;;;;;;;2.33;1.20;;;10.90;67.20;;;;;;5113268;28;20196;-63
2022/04/07 02:12:29;;;;;;;6.07;1.25;;;11.00;66.80;;;;;;5107916;28;20200;-63
2022/04/07 02:14:59;;;;;;;2.15;1.20;;;11.10;66.30;;;;;;5113987;28;20199;-63
2022/04/07 02:17:27;;;;;;;2.22;1.20;;;11.10;66.20;;;;;;5095031;28;20285;-63
2022/04/07 02:19:57;;;;;;;2.13;1.10;;;11.20;66.30;;;;;;5094687;28;20280;-63
2022/04/07 02:22:24;;;;;;;2.60;1.20;;;11.20;66.60;;;;;;5115228;28;20642;-63
2022/04/07 02:24:52;;;;;;;4.13;1.40;;;11.30;67.20;;;;;;5115253;28;20192;-63
2022/04/07 02:27:19;;;;;;;5.10;1.35;;;11.30;68.60;;;;;;5113894;28;20196;-63
2022/04/07 02:29:46;;;;;;;2.67;1.45;;;11.30;69.40;;;;;;5110374;28;20185;-63
2022/04/07 02:32:15;;;;;;;2.97;1.55;;;11.30;69.50;;;;;;5094537;28;20257;-63
2022/04/07 02:34:43;;;;;;;2.65;1.48;;;11.30;69.80;;;;;;5097262;28;20655;-63
2022/04/07 02:37:11;;;;;;;2.05;1.05;;;11.40;70.00;;;;;;5114925;28;20645;-63
2022/04/07 02:39:38;;;;;;;3.88;1.55;;;11.40;69.60;;;;;;5112325;28;20189;-63
2022/04/07 02:42:06;;;;;;;1.83;1.00;;;11.50;70.10;;;;;;5093113;28;20192;-64
2022/04/07 02:44:33;;;;;;;2.03;1.20;;;11.50;70.50;;;;;;5094823;28;20247;-63
2022/04/07 02:47:01;;;;;;;2.97;1.80;;;11.50;70.30;;;;;;5114832;28;20223;-65
2022/04/07 02:49:29;;;;;;;2.70;1.20;;;11.60;70.30;;;;;;5114805;28;20188;-63
2022/04/07 02:51:57;;;;;;;2.80;1.23;;;11.60;69.90;;;;;;5106999;28;20181;-63
2022/04/07 02:54:27;;;;;;;4.85;1.08;;;11.50;69.80;;;;;;5094302;28;20266;-63
2022/04/07 02:56:55;;;;;;;1.70;0.82;;;11.50;69.80;;;;;;5113026;28;20223;-63
2022/04/07 02:59:22;;;;;;;2.40;1.17;;;11.50;69.50;;;;;;5114269;28;20188;-64
2022/04/07 03:01:51;;;;;;;3.92;1.42;;;11.50;69.80;;;;;;5096028;28;20189;-63
2022/04/07 03:04:19;;;;;;;2.13;1.20;;;11.60;70.60;;;;;;5101829;28;20189;-63
2022/04/07 03:06:47;;;;;;;2.25;1.30;;;11.60;71.10;;;;;;5114165;28;20244;-63
2022/04/07 03:09:15;;;;;;;1.77;1.00;;;11.60;70.80;;;;;;5106539;28;20189;-63
2022/04/07 03:11:42;;;;;;;2.35;1.30;;;11.60;70.50;;;;;;5093777;28;20667;-63
2022/04/07 03:14:09;;;;;;;2.33;1.00;;;11.60;70.30;;;;;;5099304;28;20180;-64
2022/04/07 03:16:36;;;;;;;2.42;1.20;;;11.60;70.30;;;;;;5100740;28;20238;-64
2022/04/07 03:19:04;;;;;;;1.80;0.88;;;11.70;70.50;;;;;;5097550;28;20187;-64
2022/04/07 03:21:31;;;;;;;3.08;1.70;;;11.70;71.00;;;;;;5113840;28;20188;-63
2022/04/07 03:24:00;;;;;;;2.17;1.25;;;11.60;71.60;;;;;;5111741;28;20196;-63
2022/04/07 03:26:27;;;;;;;1.73;0.90;;;11.60;72.10;;;;;;5094939;28;20239;-63
2022/04/07 03:28:55;;;;;;;2.33;1.10;;;11.50;71.80;;;;;;5093390;28;20185;-63
2022/04/07 03:31:22;;;;;;;1.70;1.00;;;11.50;71.50;;;;;;5093397;28;20655;-63
2022/04/07 03:33:49;;;;;;;3.17;0.90;;;11.30;71.20;;;;;;5093262;28;20655;-63
2022/04/07 03:36:17;;;;;;;2.17;0.93;;;11.20;71.30;;;;;;5093282;28;20196;-64
2022/04/07 03:38:45;;;;;;;2.35;0.80;;;11.10;70.60;;;;;;5112863;28;20188;-63
2022/04/07 03:41:14;;;;;;;1.80;0.85;;;11.00;71.30;;;;;;5113622;27;20192;-63
2022/04/07 03:43:42;;;;;;;2.30;0.93;;;10.90;70.90;;;;;;5094631;28;20189;-63
2022/04/07 03:46:10;;;;;;;2.25;1.05;;;10.80;70.50;;;;;;5093160;28;20655;-63
2022/04/07 03:48:37;;;;;;;1.70;0.70;;;10.70;70.20;;;;;;5111332;28;20273;-64
2022/04/07 03:51:05;;;;;;;1.90;0.98;;;10.60;71.00;;;;;;5113707;28;20245;-63
2022/04/07 03:53:32;;;;;;;2.10;1.10;;;10.50;70.50;;;;;;5095166;28;20196;-63
2022/04/07 03:55:59;;;;;;;2.47;1.00;;;10.50;70.90;;;;;;5107058;28;20594;-63
2022/04/07 03:58:29;;;;;;;1.60;0.70;;;10.50;71.40;;;;;;5113463;28;20192;-63
2022/04/07 04:00:57;;;;;;;2.00;1.00;;;10.40;71.30;;;;;;5111217;28;20245;-63
2022/04/07 04:03:27;;;;;;;1.88;0.80;;;10.50;72.20;;;;;;5113757;28;20554;-63
2022/04/07 04:05:55;;;;;;;2.22;0.93;;;10.40;71.60;;;;;;5099360;28;20220;-64
2022/04/07 04:08:22;;;;;;;1.50;0.70;;;10.40;71.80;;;;;;5093145;28;20278;-63
2022/04/07 04:10:49;;;;;;;2.90;1.00;;;10.50;72.30;;;;;;5098935;28;20185;-63
2022/04/07 04:13:17;;;;;;;1.70;0.75;;;10.50;72.80;;;;;;5092782;28;20652;-64
2022/04/07 04:15:46;;;;;;;1.85;1.10;;;10.50;72.70;;;;;;5102321;28;20180;-64
2022/04/07 04:18:13;;;;;;;2.33;1.13;;;10.50;72.60;;;;;;5112794;28;20694;-63
2022/04/07 04:20:41;;;;;;;1.88;0.85;;;10.50;72.60;;;;;;5111253;28;20213;-65
2022/04/07 04:23:08;;;;;;;1.70;0.82;;;10.50;72.90;;;;;;5112969;28;20195;-63
2022/04/07 04:25:36;;;;;;;1.70;0.77;;;10.50;73.10;;;;;;5104619;28;20185;-63
2022/04/07 04:28:06;;;;;;;1.55;0.70;;;10.50;73.30;;;;;;5092648;28;20252;-64
2022/04/07 04:30:34;;;;;;;2.25;1.00;;;10.60;73.20;;;;;;5097893;28;20180;-65
2022/04/07 04:33:03;;;;;;;1.98;0.90;;;10.60;73.60;;;;;;5112900;28;20597;-64
2022/04/07 04:35:30;;;;;;;1.60;0.70;;;10.60;73.20;;;;;;5107378;28;20185;-63
2022/04/07 04:37:58;;;;;;;1.80;0.82;;;10.50;73.40;;;;;;5092335;28;20193;-63
2022/04/07 04:40:25;;;;;;;1.58;0.70;;;10.50;73.20;;;;;;5095909;28;20233;-64
2022/04/07 04:42:53;;;;;;;3.63;0.88;;;10.40;73.30;;;;;;5113632;28;20617;-63
2022/04/07 04:45:20;;;;;;;1.70;1.00;;;10.30;73.80;;;;;;5108386;28;20535;-63
2022/04/07 04:47:52;;;;;;;1.60;0.82;;;10.30;73.90;;;;;;5092162;28;20554;-63
2022/04/07 04:50:21;;;;;;;1.60;0.70;;;10.30;73.90;;;;;;5107851;28;20707;-63
2022/04/07 04:52:49;;;;;;;1.50;0.60;;;10.30;73.50;;;;;;5105948;28;20189;-64
2022/04/07 04:55:16;;;;;;;1.50;0.60;;;10.30;73.30;;;;;;5092283;28;20238;-63
2022/04/07 04:57:43;;;;;;;1.50;0.60;;;10.30;72.80;;;;;;5092997;28;20189;-64
2022/04/07 05:00:12;;;;;;;1.60;0.68;;;10.20;73.20;;;;;;5092310;28;20253;-63
2022/04/07 05:02:40;;;;;;;1.80;0.77;;;10.20;73.20;;;;;;5105155;28;20237;-64
2022/04/07 05:05:08;;;;;;;1.70;0.70;;;10.20;73.10;;;;;;5114631;28;20219;-64
2022/04/07 05:07:37;;;;;;;2.00;0.70;;;10.20;72.90;;;;;;5104112;28;20574;-63
2022/04/07 05:10:05;;;;;;;1.65;0.82;;;10.20;72.60;;;;;;5096491;28;20274;-63
2022/04/07 05:12:33;;;;;;;1.70;0.90;;;10.20;72.70;;;;;;5107005;28;20646;-64
2022/04/07 05:15:00;;;;;;;1.80;0.90;;;10.20;73.50;;;;;;5116952;28;20192;-64
2022/04/07 05:17:27;;;;;;;1.90;1.20;;;10.30;72.20;;;;;;5105527;28;20220;-63
2022/04/07 05:19:54;;;;;;;1.65;0.88;;;10.20;71.90;;;;;;5097618;28;20212;-64
2022/04/07 05:22:22;;;;;;;1.95;0.88;;;10.30;71.50;;;;;;5116625;28;20215;-64
2022/04/07 05:24:50;;;;;;;7.55;1.00;;;10.30;71.30;;;;;;5115751;28;20188;-64
2022/04/07 05:27:18;;;;;;;1.80;0.75;;;10.30;71.40;;;;;;5095536;28;20306;-63
2022/04/07 05:29:45;;;;;;;4.93;1.33;;;10.30;71.30;;;;;;5096022;28;20655;-63
2022/04/07 05:32:13;;;;;;;2.25;0.82;;;10.40;71.30;;;;;;5115773;28;20195;-65
2022/04/07 05:34:40;;;;;;;2.72;1.20;;;10.40;71.00;;;;;;5116667;28;20189;-64
2022/04/07 05:37:07;;;;;;;2.20;1.00;;;10.50;70.80;;;;;;5115707;28;20231;-63
2022/04/07 05:39:34;;;;;;;2.33;1.05;;;10.50;71.00;;;;;;5102190;28;20220;-63
2022/04/07 05:42:03;;;;;;;2.95;1.60;;;10.50;70.70;;;;;;5097801;28;20193;-64
2022/04/07 05:44:30;;;;;;;2.42;1.42;;;10.60;70.40;;;;;;5104940;27;20189;-63
2022/04/07 05:46:57;;;;;;;1.92;0.98;;;10.70;70.80;;;;;;5095726;28;20193;-63
2022/04/07 05:49:25;;;;;;;2.50;1.27;;;10.80;70.10;;;;;;5095605;28;20250;-63
2022/04/07 05:51:54;;;;;;;2.40;0.82;;;10.90;68.80;;;;;;5095530;28;20200;-64
2022/04/07 05:54:21;;;;;;;2.13;0.60;;;10.90;66.60;;;;;;5091707;28;20192;-63
2022/04/07 05:56:49;;;;;;;2.17;1.23;;;10.90;65.40;;;;;;5094874;28;20189;-63
2022/04/07 05:59:17;;;;;;;1.83;0.82;;;11.00;64.70;;;;;;5095990;28;20201;-64
2022/04/07 06:01:44;;;;;;;3.05;0.80;;;11.10;64.50;;;;;;5095495;28;20235;-64
2022/04/07 06:04:11;;;;;;;2.13;1.20;;;11.10;63.70;;;;;;5094153;28;20197;-63
2022/04/07 06:06:39;;;;;;;1.50;0.70;;;11.20;64.00;;;;;;5101023;28;20189;-63
2022/04/07 06:09:06;;;;;;;3.15;1.13;;;11.30;63.50;;;;;;5105545;28;20232;-64
2022/04/07 06:11:34;;;;;;;2.30;1.20;;;11.30;62.70;;;;;;5095060;28;20185;-63
2022/04/07 06:14:01;;;;;;;6.43;3.03;;;11.40;59.80;;;;;;5106379;28;20636;-64
2022/04/07 06:16:30;;;;;;;4.88;3.70;;;11.40;60.10;;;;;;5095693;28;20185;-63
2022/04/07 06:18:57;;;;;;;3.08;2.40;;;11.40;59.30;;;;;;5095339;28;20178;-63
2022/04/07 06:21:25;;;;;;;1.80;0.70;;;11.60;58.80;;;;;;5101856;28;20227;-64
2022/04/07 06:23:52;;;;;;;1.60;0.70;;;11.70;57.00;;;;;;5115143;28;20677;-63
2022/04/07 06:26:19;;;;;;;1.88;0.70;;;11.60;56.70;;;;;;5113494;28;20184;-64
2022/04/07 06:28:46;;;;;;;2.65;1.80;;;11.60;56.60;;;;;;5115638;28;20273;-63
2022/04/07 06:31:13;;;;;;;5.10;2.65;;;11.60;55.50;;;;;;5100481;28;20189;-63
2022/04/07 06:33:42;;;;;;;5.28;2.95;;;11.60;55.50;;;;;;5095490;28;20246;-63
2022/04/07 06:36:09;;;;;;;1.85;0.85;;;11.60;53.80;;;;;;5097311;28;20224;-64
2022/04/07 06:38:36;;;;;;;2.97;1.27;;;11.70;54.30;;;;;;5098704;28;20579;-64
2022/04/07 06:41:04;;;;;;;1.83;0.90;;;11.80;55.10;;;;;;5110617;28;20276;-63
2022/04/07 06:43:31;;;;;;;2.90;0.80;;;12.10;54.50;;;;;;5099898;28;20191;-63
2022/04/07 06:45:58;;;;;;;2.17;0.75;;;12.30;52.00;;;;;;5097397;28;20185;-63
2022/04/07 06:48:25;;;;;;;1.60;0.70;;;12.50;52.00;;;;;;5097649;28;20252;-63
2022/04/07 06:50:54;;;;;;;1.80;0.80;;;12.60;51.60;;;;;;5094661;28;20225;-64
2022/04/07 06:53:21;;;;;;;2.30;1.00;;;12.80;51.80;;;;;;5094371;28;20189;-63
2022/04/07 06:55:48;;;;;;;1.50;0.60;;;13.00;50.30;;;;;;5095112;28;20681;-64
2022/04/07 06:58:15;;;;;;;1.60;0.70;;;13.10;49.00;;;;;;5094921;28;20223;-64
2022/04/07 07:00:44;;;;;;;1.60;0.85;;;13.20;49.60;;;;;;5094950;28;20225;-64
2022/04/07 07:03:12;;;;;;;1.60;0.70;;;13.50;51.20;;;;;;5094750;28;20185;-64
2022/04/07 07:05:39;;;;;;;1.60;0.70;;;13.70;50.20;;;;;;5094830;28;20221;-64
2022/04/07 07:08:16;;;;;;;1.90;1.20;;;14.00;48.00;;;;;;5093924;28;20213;-64
2022/04/07 07:10:45;;;;;;;1.50;0.63;;;14.30;47.60;;;;;;5094612;28;20800;-64
2022/04/07 07:13:12;;;;;;;1.90;0.80;;;14.50;44.30;;;;;;5094576;28;20458;-63
2022/04/07 07:15:39;;;;;;;1.43;0.50;;;14.60;43.30;;;;;;5094615;28;20439;-64
2022/04/07 07:18:07;;;;;;;2.77;1.53;;;14.90;44.40;;;;;;5094383;28;20490;-63
2022/04/07 07:20:34;;;;;;;2.30;1.20;;;15.30;45.20;;;;;;5094637;28;20497;-64
2022/04/07 07:23:01;;;;;;;1.50;0.60;;;15.80;45.00;;;;;;5094184;28;20928;-64
2022/04/07 07:25:31;;;;;;;5.93;0.80;;;16.40;42.90;;;;;;5094341;28;20466;-64
2022/04/07 07:27:58;;;;;;;1.70;0.93;;;17.30;42.70;;;;;;5093463;28;20478;-64
2022/04/07 07:30:26;;;;;;;1.90;0.90;;;18.00;38.70;;;;;;5094388;28;20446;-64
2022/04/07 07:32:54;;;;;;;1.80;0.90;;;19.00;40.60;;;;;;5093938;28;21048;-64
2022/04/07 07:35:22;;;;;;;1.70;0.80;;;20.50;39.70;;;;;;5094248;28;20496;-64
2022/04/07 07:37:50;;;;;;;1.87;0.70;;;22.40;34.90;;;;;;5094055;28;20439;-64
2022/04/07 07:40:17;;;;;;;1.60;0.70;;;24.60;32.80;;;;;;5094113;28;20483;-64
2022/04/07 07:42:47;;;;;;;2.87;1.00;;;26.70;28.50;;;;;;5094039;28;21008;-64
2022/04/07 07:45:14;;;;;;;1.87;0.67;;;28.40;27.10;;;;;;5094034;28;20463;-64
2022/04/07 07:47:41;;;;;;;1.67;0.70;;;29.70;25.20;;;;;;5093814;28;20485;-65
2022/04/07 07:50:09;;;;;;;1.70;0.50;;;30.20;21.10;;;;;;5093836;28;20478;-65
2022/04/07 07:52:36;;;;;;;1.63;0.50;;;30.70;20.00;;;;;;5093859;28;20490;-65
2022/04/07 07:55:03;;;;;;;2.03;0.70;;;31.00;19.20;;;;;;5093740;28;20475;-64
2022/04/07 07:57:30;;;;;;;1.67;0.63;;;31.80;18.70;;;;;;5093799;28;20463;-65
2022/04/07 07:59:59;;;;;;;1.67;0.53;;;32.60;18.50;;;;;;5093695;28;20954;-64
2022/04/07 08:02:27;;;;;;;1.50;0.50;;;33.70;19.00;;;;;;5093860;28;20482;-64
2022/04/07 08:04:54;;;;;;;2.03;0.57;;;34.70;16.90;;;;;;5093767;28;20470;-65
2022/04/07 08:07:22;;;;;;;1.50;0.50;;;35.50;16.00;;;;;;5093576;28;20471;-64
2022/04/07 08:09:49;;;;;;;1.50;0.60;;;36.20;15.50;;;;;;5093326;28;20479;-64
2022/04/07 08:12:17;;;;;;;2.90;0.60;;;36.50;14.50;;;;;;5093456;28;20445;-64
2022/04/07 08:14:44;;;;;;;7.80;6.57;;;36.40;14.10;;;;;;5093504;28;20443;-63
2022/04/07 08:17:12;;;;;;;2.87;0.90;;;36.40;14.50;;;;;;5092743;28;20471;-63
2022/04/07 08:19:40;;;;;;;3.20;1.63;;;36.60;13.30;;;;;;5092967;28;20542;-63
2022/04/07 08:22:07;;;;;;;5.60;4.20;;;37.10;13.50;;;;;;5092922;28;21003;-63
2022/04/07 08:24:34;;;;;;;3.77;1.13;;;37.30;12.30;;;;;;5093287;28;21005;-63
2022/04/07 08:27:01;;;;;;;2.80;1.00;;;36.50;13.00;;;;;;5093451;28;20973;-63
2022/04/07 08:29:28;;;;;;;2.30;0.60;;;36.70;13.50;;;;;;5093293;28;20482;-63
2022/04/07 08:31:55;;;;;;;2.10;0.70;;;37.20;12.50;;;;;;5093448;28;20470;-62
2022/04/07 08:34:25;;;;;;;2.80;0.70;;;37.80;12.70;;;;;;5092955;28;20463;-62
2022/04/07 08:36:52;;;;;;;2.47;1.47;;;38.80;12.60;;;;;;5092905;28;20798;-62
2022/04/07 08:39:19;;;;;;;1.77;0.60;;;39.90;12.20;;;;;;5092984;28;20475;-62
2022/04/07 08:41:48;;;;;;;2.57;1.30;;;40.70;10.80;;;;;;5093193;28;20439;-62
2022/04/07 08:44:16;;;;;;;4.33;0.70;;;40.90;10.60;;;;;;5092669;28;20478;-63
2022/04/07 08:46:47;;;;;;;1.70;0.50;;;41.10;9.50;;;;;;5093203;28;20842;-63
2022/04/07 08:49:16;;;;;;;2.10;0.70;;;41.40;9.40;;;;;;5092542;28;20528;-67
2022/04/07 08:51:45;;;;;;;1.80;0.60;;;41.60;9.10;;;;;;5092764;28;20525;-63
2022/04/07 08:54:12;;;;;;;1.80;0.70;;;42.10;9.00;;;;;;5092703;28;20865;-62
2022/04/07 08:56:39;;;;;;;2.80;1.40;;;41.90;7.70;;;;;;5093070;28;20500;-63
2022/04/07 08:59:06;;;;;;;2.10;0.90;;;41.40;8.30;;;;;;5092739;28;20485;-63
2022/04/07 09:01:33;;;;;;;2.20;1.20;;;41.00;8.30;;;;;;5093057;28;20926;-62
2022/04/07 09:04:00;;;;;;;2.23;0.93;;;40.60;8.40;;;;;;5092903;28;20518;-63
2022/04/07 09:06:29;;;;;;;3.37;1.07;;;38.90;7.80;;;;;;5092941;28;20467;-62
2022/04/07 09:09:09;;;;;;;2.00;0.70;;;37.80;8.50;;;;;;5092800;28;20487;-63
2022/04/07 09:11:36;;;;;;;2.07;0.90;;;37.90;9.10;;;;;;5092809;28;20829;-63
2022/04/07 09:14:03;;;;;;;2.20;0.70;;;39.40;9.40;;;;;;5092700;28;20435;-63
2022/04/07 09:16:32;;;;;;;2.60;1.10;;;40.50;8.30;;;;;;5092525;28;20933;-64
2022/04/07 09:19:01;;;;;;;2.53;0.70;;;40.60;8.00;;;;;;5092803;28;20435;-63
2022/04/07 09:21:31;;;;;;;1.90;0.60;;;41.50;8.10;;;;;;5092985;28;20446;-62
2022/04/07 09:24:00;;;;;;;3.73;0.97;;;41.80;7.40;;;;;;5092527;28;20482;-62
2022/04/07 09:26:29;;;;;;;2.43;0.80;;;40.90;7.00;;;;;;5092161;28;20929;-63
2022/04/07 09:28:57;;;;;;;2.10;0.70;;;41.10;7.40;;;;;;5092754;28;20873;-63
2022/04/07 09:31:24;;;;;;;12.87;11.70;;;41.20;6.90;;;;;;5092410;28;20478;-63
2022/04/07 09:33:56;;;;;;;4.00;1.30;;;40.80;6.80;;;;;;5092043;28;20528;-62
2022/04/07 09:36:24;;;;;;;2.00;0.77;;;38.60;6.80;;;;;;5092309;28;20994;-62
2022/04/07 09:38:52;;;;;;;2.90;1.20;;;36.00;7.20;;;;;;5092162;28;20478;-62
2022/04/07 09:41:21;;;;;;;2.03;0.77;;;33.80;8.50;;;;;;5092597;28;20430;-62
2022/04/07 09:43:49;;;;;;;2.00;0.90;;;31.90;10.10;;;;;;5092665;28;20523;-62
2022/04/07 09:46:18;;;;;;;2.10;0.90;;;30.00;10.60;;;;;;5092618;28;20438;-62
2022/04/07 09:49:03;;;;;;;1.60;0.60;;;28.50;11.90;;;;;;5092441;28;20471;-63
2022/04/07 09:51:30;;;;;;;1.80;0.70;;;27.20;12.70;;;;;;5095290;28;20870;-62
2022/04/07 09:53:58;;;;;;;4.10;1.07;;;26.40;13.60;;;;;;5096038;28;20463;-62
2022/04/07 09:56:29;;;;;;;3.70;1.27;;;25.40;15.10;;;;;;5095968;28;20466;-62
2022/04/07 09:58:57;;;;;;;1.70;0.60;;;24.90;15.90;;;;;;5096364;28;20510;-62
2022/04/07 10:01:24;;;;;;;3.80;0.73;;;24.60;16.20;;;;;;5096125;28;20498;-62
2022/04/07 10:03:52;;;;;;;1.70;0.70;;;24.30;16.20;;;;;;5095877;28;20917;-62
2022/04/07 10:06:21;;;;;;;1.80;0.80;;;24.10;17.50;;;;;;5095926;28;20534;-62
2022/04/07 10:08:49;;;;;;;3.10;1.17;;;24.60;17.50;;;;;;5095762;28;20502;-62
2022/04/07 10:11:17;;;;;;;2.00;0.60;;;25.70;17.40;;;;;;5095829;28;21002;-62
2022/04/07 10:13:46;;;;;;;1.70;0.60;;;27.40;18.10;;;;;;5095939;28;20445;-62
2022/04/07 10:16:15;;;;;;;1.50;0.50;;;29.50;15.50;;;;;;5095511;28;20905;-62
2022/04/07 10:18:46;;;;;;;2.67;0.70;;;30.40;14.40;;;;;;5095569;28;20509;-62
2022/04/07 10:21:36;;;;;;;2.00;0.73;;;30.90;13.30;;;;;;5095578;28;20434;-62
2022/04/07 10:24:16;;;;;;;2.53;0.73;;;32.10;14.10;;;;;;5095758;28;20496;-62
2022/04/07 10:26:46;;;;;;;2.23;0.63;;;34.00;13.00;;;;;;5095660;28;20492;-63
2022/04/07 10:29:24;;;;;;;1.60;0.60;;;34.90;12.10;;;;;;5095479;28;20479;-62
2022/04/07 10:32:22;;;;;;;2.37;0.60;;;35.80;12.10;;;;;;5095537;28;20481;-63
2022/04/07 10:34:59;;;;;;;1.70;0.60;;;36.50;10.80;;;;;;5095598;28;20449;-62
2022/04/07 10:37:30;;;;;;;1.50;0.50;;;38.30;10.60;;;;;;5095758;28;20517;-63
2022/04/07 10:40:18;;;;;;;2.00;0.70;;;39.90;9.00;;;;;;5095513;28;20787;-62
2022/04/07 10:43:09;;;;;;;2.00;0.70;;;40.00;8.70;;;;;;5094756;28;20488;-63
2022/04/07 10:45:39;;;;;;;2.53;0.80;;;39.50;7.90;;;;;;5095473;28;20522;-63
2022/04/07 10:48:21;;;;;;;1.50;0.50;;;37.30;8.10;;;;;;5095607;28;20478;-63
2022/04/07 10:50:50;;;;;;;2.17;0.73;;;35.30;9.10;;;;;;5095237;28;20486;-62
2022/04/07 10:53:26;;;;;;;1.80;0.60;;;35.80;10.10;;;;;;5095105;28;20435;-63
2022/04/07 10:55:58;;;;;;;2.97;1.10;;;36.90;9.70;;;;;;5095280;28;20518;-63
2022/04/07 10:58:55;;;;;;;2.00;0.60;;;36.90;9.60;;;;;;5094900;28;20443;-62
2022/04/07 11:01:56;;;;;;;1.90;0.57;;;36.00;9.20;;;;;;5094493;28;20435;-63
2022/04/07 11:05:00;;;;;;;3.50;0.90;;;34.10;9.70;;;;;;5094815;28;20434;-62
2022/04/07 11:07:27;;;;;;;3.00;0.50;;;32.30;10.70;;;;;;5094915;28;20439;-62
2022/04/07 11:10:14;;;;;;;2.47;0.50;;;30.60;11.70;;;;;;5094418;28;20482;-63
2022/04/07 11:12:44;;;;;;;2.83;0.80;;;29.10;12.40;;;;;;5094885;28;20428;-62
2022/04/07 11:15:34;;;;;;;3.20;0.70;;;28.00;13.30;;;;;;5094908;28;20471;-62
2022/04/07 11:18:19;;;;;;;1.93;0.83;;;27.10;15.20;;;;;;5069321;28;20517;-63
2022/04/07 11:21:02;;;;;;;7.43;0.93;;;26.50;15.90;;;;;;5094572;28;20438;-62
2022/04/07 11:23:44;;;;;;;3.43;1.20;;;25.60;15.90;;;;;;5094646;28;20430;-61
2022/04/07 11:26:12;;;;;;;3.10;1.50;;;24.90;17.70;;;;;;5094245;28;20467;-62
2022/04/07 11:28:40;;;;;;;1.60;0.50;;;25.20;17.80;;;;;;5094499;28;20438;-62
2022/04/07 11:31:08;;;;;;;2.00;0.80;;;26.00;18.80;;;;;;5094473;28;20487;-62
2022/04/07 11:33:39;;;;;;;1.70;0.60;;;26.80;16.80;;;;;;5094467;28;20986;-62
2022/04/07 11:36:33;;;;;;;1.93;0.60;;;26.20;16.20;;;;;;5094408;28;20771;-62
2022/04/07 11:39:00;;;;;;;1.57;0.50;;;25.30;16.70;;;;;;5094595;28;20906;-62
2022/04/07 11:41:33;;;;;;;2.23;0.50;;;24.90;17.60;;;;;;5094264;28;20966;-62
2022/04/07 11:44:08;;;;;;;1.70;0.50;;;24.70;17.90;;;;;;5094198;28;20436;-62
2022/04/07 11:46:35;;;;;;;1.50;0.63;;;25.00;18.30;;;;;;5094050;28;20431;-62
2022/04/07 11:49:04;;;;;;;1.87;0.50;;;25.60;20.30;;;;;;5093827;28;20440;-62
2022/04/07 11:51:37;;;;;;;2.07;0.50;;;26.80;18.40;;;;;;5094118;28;20915;-62
2022/04/07 11:54:05;;;;;;;1.60;0.60;;;27.20;16.60;;;;;;5094092;28;20499;-62
2022/04/07 11:56:33;;;;;;;1.90;0.70;;;26.80;16.50;;;;;;5093547;28;20536;-63
2022/04/07 11:59:02;;;;;;;1.70;0.60;;;26.70;17.10;;;;;;5094122;28;20474;-63
2022/04/07 12:01:29;;;;;;;1.53;0.50;;;27.10;19.20;;;;;;5093861;28;20521;-62
2022/04/07 12:03:58;;;;;;;2.47;0.70;;;27.50;16.40;;;;;;5093718;28;20443;-62
2022/04/07 12:06:28;;;;;;;2.40;1.13;;;27.40;16.80;;;;;;5093844;28;20473;-62
2022/04/07 12:08:56;;;;;;;2.07;0.50;;;27.40;16.20;;;;;;5093770;28;20439;-62
2022/04/07 12:11:24;;;;;;;2.37;0.50;;;27.40;17.00;;;;;;5093562;28;20494;-62
2022/04/07 12:13:52;;;;;;;2.40;0.70;;;27.50;16.50;;;;;;5093368;28;20463;-62
2022/04/07 12:16:20;;;;;;;2.13;0.70;;;27.30;16.40;;;;;;5093470;28;20466;-62
2022/04/07 12:18:54;;;;;;;2.20;0.60;;;26.80;16.40;;;;;;5093121;28;20481;-62
2022/04/07 12:21:21;;;;;;;2.57;0.60;;;26.30;16.50;;;;;;5093731;28;20439;-62
2022/04/07 12:23:52;;;;;;;1.60;0.60;;;26.10;17.60;;;;;;5093311;28;20438;-62
2022/04/07 12:26:20;;;;;;;1.60;0.60;;;26.40;17.90;;;;;;5093405;28;20442;-62
2022/04/07 12:28:47;;;;;;;3.63;1.00;;;26.30;17.40;;;;;;5093007;28;20445;-62
2022/04/07 12:31:22;;;;;;;1.60;0.60;;;26.10;17.60;;;;;;5093418;28;20604;-62
2022/04/07 12:33:49;;;;;;;4.50;0.60;;;25.80;18.00;;;;;;5093398;28;20504;-62
2022/04/07 12:36:17;;;;;;;3.87;0.60;;;25.40;17.50;;;;;;5093205;28;20484;-62
2022/04/07 12:39:03;;;;;;;1.90;0.70;;;24.90;18.10;;;;;;5093043;28;20468;-62
2022/04/07 12:41:37;;;;;;;2.80;0.97;;;24.30;19.00;;;;;;5093343;28;20834;-62
2022/04/07 12:44:05;;;;;;;2.33;0.80;;;24.10;19.40;;;;;;5093397;28;20466;-62
2022/04/07 12:46:44;;;;;;;2.53;0.50;;;24.10;19.50;;;;;;5093212;28;20872;-62
2022/04/07 12:49:11;;;;;;;3.13;0.80;;;24.10;19.40;;;;;;5093309;28;20443;-62
2022/04/07 12:51:40;;;;;;;3.20;0.90;;;24.10;19.90;;;;;;5093069;28;20531;-62
2022/04/07 12:54:11;;;;;;;6.23;0.70;;;23.90;19.70;;;;;;5093247;28;20478;-62
2022/04/07 12:56:39;;;;;;;3.20;0.67;;;23.70;20.60;;;;;;5092877;28;20466;-62
2022/04/07 12:59:09;;;;;;;1.97;0.60;;;23.70;20.70;;;;;;5093187;28;20482;-62